sensor_id;sensor_type;location;lat;lon;timestamp;pressure;altitude;pressure_sealevel;temperature;humidity
55066;BME280;40964;42.114;24.220;2023-03-01T00:02:04;98544.03;;;5.36;100.00
55066;BME280;40964;42.114;24.220;2023-03-01T00:04:30;98537.19;;;5.43;100.00
55066;BME280;40964;42.114;24.220;2023-03-01T00:06:57;98542.06;;;5.38;100.00
55066;BME280;40964;42.114;24.220;2023-03-01T00:09:22;98538.34;;;5.40;100.00
55066;BME280;40964;42.114;24.220;2023-03-01T00:11:48;98540.25;;;5.38;100.00
55066;BME280;40964;42.114;24.220;2023-03-01T00:14:14;98522.69;;;5.24;100.00
55066;BME280;40964;42.114;24.220;2023-03-01T00:16:42;98508.84;;;5.16;100.00
55066;BME280;40964;42.114;24.220;2023-03-01T00:19:13;98532.47;;;5.22;100.00
55066;BME280;40964;42.114;24.220;2023-03-01T00:21:39;98530.69;;;5.23;100.00
55066;BME280;40964;42.114;24.220;2023-03-01T00:24:05;98525.78;;;5.20;100.00
55066;BME280;40964;42.114;24.220;2023-03-01T00:26:31;98524.97;;;5.19;100.00
55066;BME280;40964;42.114;24.220;2023-03-01T00:28:57;98532.78;;;5.19;100.00
55066;BME280;40964;42.114;24.220;2023-03-01T00:31:26;98526.28;;;5.15;100.00
55066;BME280;40964;42.114;24.220;2023-03-01T00:33:56;98520.44;;;5.13;100.00
55066;BME280;40964;42.114;24.220;2023-03-01T00:36:23;98532.31;;;5.07;100.00
55066;BME280;40964;42.114;24.220;2023-03-01T00:38:49;98516.31;;;4.94;100.00
55066;BME280;40964;42.114;24.220;2023-03-01T00:41:17;98528.56;;;5.10;100.00
55066;BME280;40964;42.114;24.220;2023-03-01T00:43:44;98529.69;;;5.07;100.00
55066;BME280;40964;42.114;24.220;2023-03-01T00:46:12;98516.66;;;5.07;100.00
55066;BME280;40964;42.114;24.220;2023-03-01T00:48:38;98509.50;;;5.01;100.00
55066;BME280;40964;42.114;24.220;2023-03-01T00:51:12;98513.25;;;5.07;100.00
55066;BME280;40964;42.114;24.220;2023-03-01T00:53:38;98508.69;;;5.01;100.00
55066;BME280;40964;42.114;24.220;2023-03-01T00:56:05;98518.78;;;5.12;100.00
55066;BME280;40964;42.114;24.220;2023-03-01T00:58:31;98509.50;;;5.09;100.00
55066;BME280;40964;42.114;24.220;2023-03-01T01:00:57;98507.06;;;5.16;100.00
55066;BME280;40964;42.114;24.220;2023-03-01T01:03:23;98507.53;;;5.20;100.00
55066;BME280;40964;42.114;24.220;2023-03-01T01:05:51;98493.53;;;5.12;100.00
55066;BME280;40964;42.114;24.220;2023-03-01T01:08:17;98501.66;;;5.18;100.00
55066;BME280;40964;42.114;24.220;2023-03-01T01:10:44;98503.63;;;5.32;100.00
55066;BME280;40964;42.114;24.220;2023-03-01T01:13:09;98501.66;;;5.34;100.00
55066;BME280;40964;42.114;24.220;2023-03-01T01:15:35;98499.69;;;5.36;100.00
55066;BME280;40964;42.114;24.220;2023-03-01T01:18:01;98491.50;;;5.47;100.00
55066;BME280;40964;42.114;24.220;2023-03-01T01:20:26;98494.44;;;5.52;100.00
55066;BME280;40964;42.114;24.220;2023-03-01T01:22:52;98489.22;;;5.52;100.00
55066;BME280;40964;42.114;24.220;2023-03-01T01:25:18;98492.81;;;5.51;100.00
55066;BME280;40964;42.114;24.220;2023-03-01T01:27:44;98488.25;;;5.45;100.00
55066;BME280;40964;42.114;24.220;2023-03-01T01:30:10;98486.28;;;5.55;100.00
55066;BME280;40964;42.114;24.220;2023-03-01T01:32:35;98474.59;;;5.35;100.00
55066;BME280;40964;42.114;24.220;2023-03-01T01:35:01;98470.69;;;5.31;100.00
55066;BME280;40964;42.114;24.220;2023-03-01T01:37:27;98474.25;;;5.38;100.00
55066;BME280;40964;42.114;24.220;2023-03-01T01:40:00;98482.38;;;5.51;100.00
55066;BME280;40964;42.114;24.220;2023-03-01T01:42:27;98483.84;;;5.54;100.00
55066;BME280;40964;42.114;24.220;2023-03-01T01:47:55;98470.50;;;5.40;100.00
55066;BME280;40964;42.114;24.220;2023-03-01T01:50:23;98472.44;;;5.38;100.00
55066;BME280;40964;42.114;24.220;2023-03-01T01:52:50;98484.03;;;5.44;100.00
55066;BME280;40964;42.114;24.220;2023-03-01T01:55:23;98477.66;;;5.47;100.00
55066;BME280;40964;42.114;24.220;2023-03-01T01:57:58;98470.16;;;5.44;100.00
55066;BME280;40964;42.114;24.220;2023-03-01T02:00:27;98470.81;;;5.46;100.00
55066;BME280;40964;42.114;24.220;2023-03-01T02:02:59;98470.81;;;5.37;100.00
55066;BME280;40964;42.114;24.220;2023-03-01T02:05:53;98470.00;;;5.37;100.00
55066;BME280;40964;42.114;24.220;2023-03-01T02:08:23;98457.97;;;5.36;100.00
55066;BME280;40964;42.114;24.220;2023-03-01T02:10:51;98465.59;;;5.37;100.00
55066;BME280;40964;42.114;24.220;2023-03-01T02:13:17;98449.47;;;5.42;100.00
55066;BME280;40964;42.114;24.220;2023-03-01T02:15:43;98456.50;;;5.41;100.00
55066;BME280;40964;42.114;24.220;2023-03-01T02:18:14;98456.34;;;5.27;100.00
55066;BME280;40964;42.114;24.220;2023-03-01T02:23:19;98464.50;;;5.32;100.00
55066;BME280;40964;42.114;24.220;2023-03-01T02:25:52;98462.84;;;5.39;100.00
55066;BME280;40964;42.114;24.220;2023-03-01T02:28:35;98451.44;;;5.48;100.00
55066;BME280;40964;42.114;24.220;2023-03-01T02:31:02;98450.13;;;5.36;100.00
55066;BME280;40964;42.114;24.220;2023-03-01T02:33:47;98459.09;;;5.41;100.00
55066;BME280;40964;42.114;24.220;2023-03-01T02:36:22;98456.28;;;5.51;100.00
55066;BME280;40964;42.114;24.220;2023-03-01T02:38:51;98453.84;;;5.50;100.00
55066;BME280;40964;42.114;24.220;2023-03-01T02:41:19;98453.16;;;5.64;100.00
55066;BME280;40964;42.114;24.220;2023-03-01T02:43:45;98450.38;;;5.65;100.00
55066;BME280;40964;42.114;24.220;2023-03-01T02:46:24;98446.47;;;5.61;100.00
55066;BME280;40964;42.114;24.220;2023-03-01T02:48:56;98451.69;;;5.61;100.00
55066;BME280;40964;42.114;24.220;2023-03-01T02:55:02;98452.03;;;5.58;100.00
55066;BME280;40964;42.114;24.220;2023-03-01T02:57:30;98443.53;;;5.56;100.00
55066;BME280;40964;42.114;24.220;2023-03-01T03:00:00;98443.59;;;5.48;100.00
55066;BME280;40964;42.114;24.220;2023-03-01T03:02:29;98456.31;;;5.43;100.00
55066;BME280;40964;42.114;24.220;2023-03-01T03:05:03;98454.38;;;5.37;100.00
55066;BME280;40964;42.114;24.220;2023-03-01T03:07:32;98447.81;;;5.49;100.00
55066;BME280;40964;42.114;24.220;2023-03-01T03:09:59;98444.41;;;5.49;100.00
55066;BME280;40964;42.114;24.220;2023-03-01T03:12:25;98443.59;;;5.48;100.00
55066;BME280;40964;42.114;24.220;2023-03-01T03:14:50;98452.56;;;5.46;100.00
55066;BME280;40964;42.114;24.220;2023-03-01T03:17:16;98432.53;;;5.30;100.00
55066;BME280;40964;42.114;24.220;2023-03-01T03:19:41;98455.97;;;5.46;100.00
55066;BME280;40964;42.114;24.220;2023-03-01T03:22:14;98449.44;;;5.58;100.00
55066;BME280;40964;42.114;24.220;2023-03-01T03:24:40;98435.91;;;5.47;100.00
55066;BME280;40964;42.114;24.220;2023-03-01T03:27:06;98446.03;;;5.50;100.00
55066;BME280;40964;42.114;24.220;2023-03-01T03:29:32;98438.88;;;5.44;100.00
55066;BME280;40964;42.114;24.220;2023-03-01T03:31:57;98442.25;;;5.52;100.00
55066;BME280;40964;42.114;24.220;2023-03-01T03:34:23;98442.13;;;5.37;100.00
55066;BME280;40964;42.114;24.220;2023-03-01T03:36:55;98445.53;;;5.46;100.00
55066;BME280;40964;42.114;24.220;2023-03-01T03:39:25;98444.53;;;5.55;100.00
55066;BME280;40964;42.114;24.220;2023-03-01T03:41:52;98439.00;;;5.58;100.00
55066;BME280;40964;42.114;24.220;2023-03-01T03:44:18;98444.19;;;5.66;100.00
55066;BME280;40964;42.114;24.220;2023-03-01T03:46:43;98452.00;;;5.66;100.00
55066;BME280;40964;42.114;24.220;2023-03-01T03:49:09;98449.69;;;5.72;100.00
55066;BME280;40964;42.114;24.220;2023-03-01T03:51:34;98460.75;;;5.82;100.00
55066;BME280;40964;42.114;24.220;2023-03-01T03:54:00;98450.66;;;5.79;100.00
55066;BME280;40964;42.114;24.220;2023-03-01T03:56:25;98455.84;;;5.87;100.00
55066;BME280;40964;42.114;24.220;2023-03-01T03:58:51;98462.03;;;5.94;100.00
55066;BME280;40964;42.114;24.220;2023-03-01T04:01:17;98449.31;;;5.91;100.00
55066;BME280;40964;42.114;24.220;2023-03-01T04:03:43;98463.78;;;6.02;100.00
55066;BME280;40964;42.114;24.220;2023-03-01T04:06:12;98446.69;;;5.91;100.00
55066;BME280;40964;42.114;24.220;2023-03-01T04:08:37;98455.84;;;5.95;100.00
55066;BME280;40964;42.114;24.220;2023-03-01T04:11:04;98457.16;;;5.83;100.00
55066;BME280;40964;42.114;24.220;2023-03-01T04:13:49;98459.44;;;5.94;100.00
55066;BME280;40964;42.114;24.220;2023-03-01T04:16:15;98458.94;;;5.90;100.00
55066;BME280;40964;42.114;24.220;2023-03-01T04:18:41;98448.41;;;5.67;100.00
55066;BME280;40964;42.114;24.220;2023-03-01T04:21:07;98466.69;;;5.67;100.00
55066;BME280;40964;42.114;24.220;2023-03-01T04:23:32;98463.69;;;5.79;100.00
55066;BME280;40964;42.114;24.220;2023-03-01T04:25:58;98466.38;;;5.54;100.00
55066;BME280;40964;42.114;24.220;2023-03-01T04:28:32;98466.69;;;5.67;100.00
55066;BME280;40964;42.114;24.220;2023-03-01T04:31:09;98467.47;;;5.76;100.00
55066;BME280;40964;42.114;24.220;2023-03-01T04:33:49;98462.72;;;5.80;100.00
55066;BME280;40964;42.114;24.220;2023-03-01T04:36:17;98464.34;;;5.81;100.00
55066;BME280;40964;42.114;24.220;2023-03-01T04:38:43;98463.03;;;5.85;100.00
55066;BME280;40964;42.114;24.220;2023-03-01T04:41:13;98459.56;;;5.92;100.00
55066;BME280;40964;42.114;24.220;2023-03-01T04:43:38;98465.28;;;5.96;100.00
55066;BME280;40964;42.114;24.220;2023-03-01T04:46:06;98456.28;;;5.98;100.00
55066;BME280;40964;42.114;24.220;2023-03-01T04:48:52;98458.56;;;6.02;100.00
55066;BME280;40964;42.114;24.220;2023-03-01T04:51:36;98455.69;;;5.80;100.00
55066;BME280;40964;42.114;24.220;2023-03-01T04:54:02;98447.50;;;5.91;100.00
55066;BME280;40964;42.114;24.220;2023-03-01T04:56:47;98446.38;;;5.86;100.00
55066;BME280;40964;42.114;24.220;2023-03-01T04:59:31;98449.66;;;5.80;100.00
55066;BME280;40964;42.114;24.220;2023-03-01T05:02:14;98453.91;;;5.81;100.00
55066;BME280;40964;42.114;24.220;2023-03-01T05:04:58;98454.41;;;5.84;100.00
55066;BME280;40964;42.114;24.220;2023-03-01T05:07:24;98453.09;;;5.80;100.00
55066;BME280;40964;42.114;24.220;2023-03-01T05:09:51;98453.25;;;5.79;100.00
55066;BME280;40964;42.114;24.220;2023-03-01T05:12:17;98456.03;;;5.77;100.00
55066;BME280;40964;42.114;24.220;2023-03-01T05:14:42;98462.22;;;5.84;100.00
55066;BME280;40964;42.114;24.220;2023-03-01T05:17:08;98456.84;;;5.78;100.00
55066;BME280;40964;42.114;24.220;2023-03-01T05:19:33;98467.00;;;5.64;100.00
55066;BME280;40964;42.114;24.220;2023-03-01T05:21:59;98453.94;;;5.64;100.00
55066;BME280;40964;42.114;24.220;2023-03-01T05:24:30;98466.34;;;5.70;100.00
55066;BME280;40964;42.114;24.220;2023-03-01T05:26:56;98465.38;;;5.63;100.00
55066;BME280;40964;42.114;24.220;2023-03-01T05:29:24;98467.22;;;5.47;100.00
55066;BME280;40964;42.114;24.220;2023-03-01T05:31:57;98475.13;;;5.14;100.00
55066;BME280;40964;42.114;24.220;2023-03-01T05:34:32;98469.75;;;4.99;100.00
55066;BME280;40964;42.114;24.220;2023-03-01T05:36:58;98478.38;;;5.00;100.00
55066;BME280;40964;42.114;24.220;2023-03-01T05:39:25;98471.72;;;4.81;100.00
55066;BME280;40964;42.114;24.220;2023-03-01T05:41:53;98477.41;;;4.68;100.00
55066;BME280;40964;42.114;24.220;2023-03-01T05:44:19;98475.28;;;4.64;100.00
55066;BME280;40964;42.114;24.220;2023-03-01T05:46:45;98473.31;;;4.66;100.00
55066;BME280;40964;42.114;24.220;2023-03-01T05:49:11;98475.28;;;4.64;100.00
55066;BME280;40964;42.114;24.220;2023-03-01T05:51:39;98482.94;;;4.73;100.00
55066;BME280;40964;42.114;24.220;2023-03-01T05:54:05;98480.50;;;4.80;100.00
55066;BME280;40964;42.114;24.220;2023-03-01T05:56:35;98476.44;;;4.77;100.00
55066;BME280;40964;42.114;24.220;2023-03-01T05:59:02;98489.13;;;4.80;100.00
55066;BME280;40964;42.114;24.220;2023-03-01T06:01:28;98467.31;;;4.73;100.00
55066;BME280;40964;42.114;24.220;2023-03-01T06:03:54;98485.53;;;4.73;100.00
55066;BME280;40964;42.114;24.220;2023-03-01T06:06:20;98483.13;;;4.80;100.00
55066;BME280;40964;42.114;24.220;2023-03-01T06:08:46;98485.72;;;4.88;100.00
55066;BME280;40964;42.114;24.220;2023-03-01T06:11:11;98495.81;;;4.83;100.00
55066;BME280;40964;42.114;24.220;2023-03-01T06:13:37;98498.25;;;4.68;100.00
55066;BME280;40964;42.114;24.220;2023-03-01T06:16:06;98498.28;;;4.76;100.00
55066;BME280;40964;42.114;24.220;2023-03-01T06:18:32;98501.81;;;4.67;100.00
55066;BME280;40964;42.114;24.220;2023-03-01T06:20:57;98505.91;;;4.78;100.00
55066;BME280;40964;42.114;24.220;2023-03-01T06:23:23;98504.59;;;4.82;100.00
55066;BME280;40964;42.114;24.220;2023-03-01T06:25:49;98502.00;;;4.74;100.00
55066;BME280;40964;42.114;24.220;2023-03-01T06:28:15;98506.72;;;4.78;100.00
55066;BME280;40964;42.114;24.220;2023-03-01T06:30:41;98503.47;;;4.84;100.00
55066;BME280;40964;42.114;24.220;2023-03-01T06:33:06;98503.97;;;4.80;100.00
55066;BME280;40964;42.114;24.220;2023-03-01T06:35:32;98500.53;;;4.79;100.00
55066;BME280;40964;42.114;24.220;2023-03-01T06:37:59;98507.38;;;4.80;100.00
55066;BME280;40964;42.114;24.220;2023-03-01T06:40:25;98511.13;;;4.78;100.00
55066;BME280;40964;42.114;24.220;2023-03-01T06:42:51;98509.81;;;4.82;100.00
55066;BME280;40964;42.114;24.220;2023-03-01T06:45:18;98505.75;;;4.79;100.00
55066;BME280;40964;42.114;24.220;2023-03-01T06:47:44;98516.66;;;4.75;100.00
55066;BME280;40964;42.114;24.220;2023-03-01T06:50:11;98500.53;;;4.71;100.00
55066;BME280;40964;42.114;24.220;2023-03-01T06:52:36;98480.19;;;4.59;100.00
55066;BME280;40964;42.114;24.220;2023-03-01T06:55:05;98520.75;;;4.77;100.00
55066;BME280;40964;42.114;24.220;2023-03-01T06:57:31;98514.06;;;4.91;100.00
55066;BME280;40964;42.114;24.220;2023-03-01T06:59:56;98524.47;;;4.91;100.00
55066;BME280;40964;42.114;24.220;2023-03-01T07:02:22;98524.81;;;4.88;100.00
55066;BME280;40964;42.114;24.220;2023-03-01T07:04:51;98517.81;;;4.89;100.00
55066;BME280;40964;42.114;24.220;2023-03-01T07:07:17;98514.38;;;4.88;100.00
55066;BME280;40964;42.114;24.220;2023-03-01T07:09:44;98511.78;;;4.88;100.00
55066;BME280;40964;42.114;24.220;2023-03-01T07:12:10;98516.00;;;4.89;100.00
55066;BME280;40964;42.114;24.220;2023-03-01T07:14:35;98514.06;;;4.91;100.00
55066;BME280;40964;42.114;24.220;2023-03-01T07:17:01;98508.19;;;4.97;100.00
55066;BME280;40964;42.114;24.220;2023-03-01T07:19:26;98510.47;;;5.08;100.00
55066;BME280;40964;42.114;24.220;2023-03-01T07:21:52;98496.63;;;5.00;100.00
55066;BME280;40964;42.114;24.220;2023-03-01T07:24:17;98513.41;;;5.13;100.00
55066;BME280;40964;42.114;24.220;2023-03-01T07:26:42;98511.09;;;5.27;100.00
55066;BME280;40964;42.114;24.220;2023-03-01T07:29:10;98509.00;;;5.14;100.00
55066;BME280;40964;42.114;24.220;2023-03-01T07:31:36;98509.81;;;5.23;100.00
55066;BME280;40964;42.114;24.220;2023-03-01T07:34:04;98513.06;;;5.25;100.00
55066;BME280;40964;42.114;24.220;2023-03-01T07:36:30;98500.84;;;5.33;100.00
55066;BME280;40964;42.114;24.220;2023-03-01T07:38:55;98510.44;;;5.49;100.00
55066;BME280;40964;42.114;24.220;2023-03-01T07:41:21;98507.03;;;5.49;100.00
55066;BME280;40964;42.114;24.220;2023-03-01T07:43:47;98509.78;;;5.39;100.00
55066;BME280;40964;42.114;24.220;2023-03-01T07:46:12;98502.94;;;5.38;100.00
55066;BME280;40964;42.114;24.220;2023-03-01T07:48:38;98501.00;;;5.40;100.00
55066;BME280;40964;42.114;24.220;2023-03-01T07:51:05;98504.59;;;5.31;100.00
55066;BME280;40964;42.114;24.220;2023-03-01T07:53:31;98503.44;;;5.41;100.00
55066;BME280;40964;42.114;24.220;2023-03-01T07:56:12;98511.06;;;5.59;100.00
55066;BME280;40964;42.114;24.220;2023-03-01T07:58:40;98496.84;;;5.70;100.00
55066;BME280;40964;42.114;24.220;2023-03-01T08:01:09;98490.81;;;5.69;100.00
55066;BME280;40964;42.114;24.220;2023-03-01T08:03:35;98507.75;;;5.74;100.00
55066;BME280;40964;42.114;24.220;2023-03-01T08:06:03;98491.44;;;5.80;100.00
55066;BME280;40964;42.114;24.220;2023-03-01T08:08:29;98501.34;;;5.92;100.00
55066;BME280;40964;42.114;24.220;2023-03-01T08:10:59;98496.28;;;5.83;100.00
55066;BME280;40964;42.114;24.220;2023-03-01T08:13:25;98491.88;;;5.91;100.00
55066;BME280;40964;42.114;24.220;2023-03-01T08:15:51;98486.84;;;5.82;100.00
55066;BME280;40964;42.114;24.220;2023-03-01T08:18:18;98497.63;;;5.79;100.00
55066;BME280;40964;42.114;24.220;2023-03-01T08:20:44;98490.19;;;5.59;100.00
55066;BME280;40964;42.114;24.220;2023-03-01T08:23:10;98491.84;;;5.52;100.00
55066;BME280;40964;42.114;24.220;2023-03-01T08:25:35;98494.47;;;5.44;100.00
55066;BME280;40964;42.114;24.220;2023-03-01T08:28:01;98504.25;;;5.34;100.00
55066;BME280;40964;42.114;24.220;2023-03-01T08:30:26;98497.44;;;5.17;100.00
55066;BME280;40964;42.114;24.220;2023-03-01T08:32:52;98495.13;;;5.38;100.00
55066;BME280;40964;42.114;24.220;2023-03-01T08:35:17;98480.16;;;5.32;100.00
55066;BME280;40964;42.114;24.220;2023-03-01T08:37:44;98486.66;;;5.36;100.00
55066;BME280;40964;42.114;24.220;2023-03-01T08:40:10;98475.75;;;5.24;100.00
55066;BME280;40964;42.114;24.220;2023-03-01T08:42:36;98476.75;;;5.15;100.00
55066;BME280;40964;42.114;24.220;2023-03-01T08:45:06;98491.06;;;5.19;100.00
55066;BME280;40964;42.114;24.220;2023-03-01T08:47:33;98487.97;;;5.32;100.00
55066;BME280;40964;42.114;24.220;2023-03-01T08:50:02;98489.75;;;5.39;100.00
55066;BME280;40964;42.114;24.220;2023-03-01T08:52:27;98490.41;;;5.33;100.00
55066;BME280;40964;42.114;24.220;2023-03-01T08:54:53;98490.72;;;5.38;100.00
55066;BME280;40964;42.114;24.220;2023-03-01T08:57:19;98491.84;;;5.44;100.00
55066;BME280;40964;42.114;24.220;2023-03-01T08:59:44;98478.84;;;5.28;100.00
55066;BME280;40964;42.114;24.220;2023-03-01T09:02:14;98481.97;;;5.15;100.00
55066;BME280;40964;42.114;24.220;2023-03-01T09:04:40;98497.59;;;5.31;100.00
55066;BME280;40964;42.114;24.220;2023-03-01T09:07:05;98491.03;;;5.52;100.00
55066;BME280;40964;42.114;24.220;2023-03-01T09:09:31;98495.25;;;5.61;100.00
55066;BME280;40964;42.114;24.220;2023-03-01T09:11:57;98492.03;;;5.43;100.00
55066;BME280;40964;42.114;24.220;2023-03-01T09:14:22;98500.16;;;5.48;100.00
55066;BME280;40964;42.114;24.220;2023-03-01T09:16:48;98498.53;;;5.47;100.00
55066;BME280;40964;42.114;24.220;2023-03-01T09:19:13;98499.03;;;5.50;100.00
55066;BME280;40964;42.114;24.220;2023-03-01T09:21:39;98496.53;;;5.57;100.00
55066;BME280;40964;42.114;24.220;2023-03-01T09:24:05;98500.59;;;5.76;100.00
55066;BME280;40964;42.114;24.220;2023-03-01T09:26:30;98500.84;;;5.97;100.00
55066;BME280;40964;42.114;24.220;2023-03-01T09:28:56;98492.34;;;6.03;100.00
55066;BME280;40964;42.114;24.220;2023-03-01T09:31:23;98487.91;;;6.12;100.00
55066;BME280;40964;42.114;24.220;2023-03-01T09:33:50;98491.81;;;6.08;100.00
55066;BME280;40964;42.114;24.220;2023-03-01T09:36:19;98491.22;;;5.97;100.00
55066;BME280;40964;42.114;24.220;2023-03-01T09:38:46;98482.13;;;5.93;100.00
55066;BME280;40964;42.114;24.220;2023-03-01T09:44:10;98442.81;;;5.79;100.00
55066;BME280;40964;42.114;24.220;2023-03-01T09:46:42;98480.78;;;5.97;100.00
55066;BME280;40964;42.114;24.220;2023-03-01T09:49:24;98475.09;;;5.86;100.00
55066;BME280;40964;42.114;24.220;2023-03-01T09:54:57;98474.56;;;5.98;100.00
55066;BME280;40964;42.114;24.220;2023-03-01T09:57:49;98471.97;;;5.98;100.00
55066;BME280;40964;42.114;24.220;2023-03-01T10:00:44;98474.94;;;5.87;100.00
55066;BME280;40964;42.114;24.220;2023-03-01T10:05:56;98466.03;;;6.13;100.00
55066;BME280;40964;42.114;24.220;2023-03-01T10:08:51;98458.25;;;6.28;100.00
55066;BME280;40964;42.114;24.220;2023-03-01T10:11:39;98447.31;;;6.32;100.00
55066;BME280;40964;42.114;24.220;2023-03-01T10:14:18;98459.84;;;6.60;100.00
55066;BME280;40964;42.114;24.220;2023-03-01T10:16:55;98457.94;;;6.53;100.00
55066;BME280;40964;42.114;24.220;2023-03-01T10:19:40;98463.50;;;6.50;100.00
55066;BME280;40964;42.114;24.220;2023-03-01T10:22:19;98462.06;;;6.71;100.00
55066;BME280;40964;42.114;24.220;2023-03-01T10:24:49;98448.16;;;6.70;100.00
55066;BME280;40964;42.114;24.220;2023-03-01T10:27:34;98464.72;;;6.86;100.00
55066;BME280;40964;42.114;24.220;2023-03-01T10:30:19;98403.16;;;6.37;100.00
55066;BME280;40964;42.114;24.220;2023-03-01T10:32:49;98449.22;;;6.61;100.00
55066;BME280;40964;42.114;24.220;2023-03-01T10:35:19;98438.88;;;6.45;100.00
55066;BME280;40964;42.114;24.220;2023-03-01T10:38:17;98439.59;;;6.39;100.00
55066;BME280;40964;42.114;24.220;2023-03-01T10:43:15;98437.78;;;6.62;100.00
55066;BME280;40964;42.114;24.220;2023-03-01T10:45:41;98434.13;;;6.48;100.00
55066;BME280;40964;42.114;24.220;2023-03-01T10:48:25;98428.84;;;6.34;100.00
55066;BME280;40964;42.114;24.220;2023-03-01T10:56:06;98420.56;;;6.30;100.00
55066;BME280;40964;42.114;24.220;2023-03-01T10:58:34;98425.13;;;6.28;100.00
55066;BME280;40964;42.114;24.220;2023-03-01T11:01:02;98416.72;;;6.41;100.00
55066;BME280;40964;42.114;24.220;2023-03-01T11:03:33;98415.78;;;6.34;100.00
55066;BME280;40964;42.114;24.220;2023-03-01T11:08:43;98396.44;;;6.43;100.00
55066;BME280;40964;42.114;24.220;2023-03-01T11:11:20;98398.69;;;6.46;100.00
55066;BME280;40964;42.114;24.220;2023-03-01T11:13:53;98386.69;;;6.60;100.00
55066;BME280;40964;42.114;24.220;2023-03-01T11:21:35;98386.94;;;6.65;100.00
55066;BME280;40964;42.114;24.220;2023-03-01T11:24:03;98382.25;;;6.60;100.00
55066;BME280;40964;42.114;24.220;2023-03-01T11:26:31;98377.97;;;6.67;100.00
55066;BME280;40964;42.114;24.220;2023-03-01T11:29:04;98377.63;;;6.85;100.00
55066;BME280;40964;42.114;24.220;2023-03-01T11:31:32;98371.69;;;6.91;100.00
55066;BME280;40964;42.114;24.220;2023-03-01T11:34:05;98369.56;;;6.72;100.00
55066;BME280;40964;42.114;24.220;2023-03-01T11:39:28;98360.28;;;6.32;100.00
55066;BME280;40964;42.114;24.220;2023-03-01T11:42:26;98312.78;;;6.13;100.00
55066;BME280;40964;42.114;24.220;2023-03-01T11:44:55;98356.91;;;6.46;100.00
55066;BME280;40964;42.114;24.220;2023-03-01T11:50:47;98357.25;;;6.80;100.00
55066;BME280;40964;42.114;24.220;2023-03-01T11:56:03;98355.53;;;6.88;100.00
55066;BME280;40964;42.114;24.220;2023-03-01T12:04:18;98358.72;;;6.98;100.00
55066;BME280;40964;42.114;24.220;2023-03-01T12:07:00;98353.00;;;6.79;100.00
55066;BME280;40964;42.114;24.220;2023-03-01T12:09:40;98347.13;;;6.63;100.00
55066;BME280;40964;42.114;24.220;2023-03-01T12:12:28;98350.72;;;6.62;100.00
55066;BME280;40964;42.114;24.220;2023-03-01T12:20:33;98345.78;;;6.29;100.00
55066;BME280;40964;42.114;24.220;2023-03-01T12:26:07;98346.75;;;6.51;100.00
55066;BME280;40964;42.114;24.220;2023-03-01T12:39:40;98347.38;;;6.53;100.00
55066;BME280;40964;42.114;24.220;2023-03-01T12:47:55;98335.44;;;6.88;100.00
55066;BME280;40964;42.114;24.220;2023-03-01T12:50:25;98332.00;;;6.88;100.00
55066;BME280;40964;42.114;24.220;2023-03-01T12:52:57;98325.69;;;6.82;100.00
55066;BME280;40964;42.114;24.220;2023-03-01T12:55:38;98327.78;;;6.87;100.00
55066;BME280;40964;42.114;24.220;2023-03-01T12:58:23;98324.25;;;6.79;100.00
55066;BME280;40964;42.114;24.220;2023-03-01T13:01:54;98327.22;;;6.76;100.00
55066;BME280;40964;42.114;24.220;2023-03-01T13:04:06;98333.69;;;6.51;100.00
55066;BME280;40964;42.114;24.220;2023-03-01T13:09:40;98333.56;;;6.44;100.00
55066;BME280;40964;42.114;24.220;2023-03-01T13:17:54;98326.28;;;6.17;100.00
55066;BME280;40964;42.114;24.220;2023-03-01T13:20:24;98327.56;;;6.21;100.00
55066;BME280;40964;42.114;24.220;2023-03-01T13:23:02;98321.69;;;6.19;100.00
55066;BME280;40964;42.114;24.220;2023-03-01T13:25:28;98324.84;;;6.14;100.00
55066;BME280;40964;42.114;24.220;2023-03-01T13:30:53;98325.22;;;6.26;100.00
55066;BME280;40964;42.114;24.220;2023-03-01T13:35:55;98308.59;;;6.04;100.00
55066;BME280;40964;42.114;24.220;2023-03-01T13:38:44;98326.09;;;6.18;100.00
55066;BME280;40964;42.114;24.220;2023-03-01T13:41:12;98312.78;;;6.13;100.00
55066;BME280;40964;42.114;24.220;2023-03-01T13:43:41;98323.16;;;6.21;100.00
55066;BME280;40964;42.114;24.220;2023-03-01T13:46:17;98318.75;;;6.37;100.00
55066;BME280;40964;42.114;24.220;2023-03-01T13:48:49;98314.25;;;6.31;100.00
55066;BME280;40964;42.114;24.220;2023-03-01T13:51:16;98317.81;;;6.15;100.00
55066;BME280;40964;42.114;24.220;2023-03-01T13:53:47;98318.16;;;6.12;100.00
55066;BME280;40964;42.114;24.220;2023-03-01T13:56:38;98326.63;;;6.14;100.00
55066;BME280;40964;42.114;24.220;2023-03-01T13:59:18;98322.50;;;6.19;100.00
55066;BME280;40964;42.114;24.220;2023-03-01T14:01:44;98328.66;;;6.26;100.00
55066;BME280;40964;42.114;24.220;2023-03-01T14:04:24;98319.81;;;6.28;100.00
55066;BME280;40964;42.114;24.220;2023-03-01T14:06:51;98330.56;;;6.33;100.00
55066;BME280;40964;42.114;24.220;2023-03-01T14:09:23;98291.34;;;6.18;100.00
55066;BME280;40964;42.114;24.220;2023-03-01T14:14:59;98332.72;;;6.29;100.00
55066;BME280;40964;42.114;24.220;2023-03-01T14:22:43;98336.00;;;6.46;100.00
55066;BME280;40964;42.114;24.220;2023-03-01T14:27:44;98327.94;;;6.70;100.00
55066;BME280;40964;42.114;24.220;2023-03-01T14:30:25;98325.25;;;6.78;100.00
55066;BME280;40964;42.114;24.220;2023-03-01T14:33:04;98320.56;;;6.89;100.00
55066;BME280;40964;42.114;24.220;2023-03-01T14:35:34;98324.72;;;6.98;100.00
55066;BME280;40964;42.114;24.220;2023-03-01T14:37:59;98329.41;;;6.88;100.00
55066;BME280;40964;42.114;24.220;2023-03-01T14:40:26;98321.47;;;6.81;100.00
55066;BME280;40964;42.114;24.220;2023-03-01T14:42:53;98322.19;;;6.75;100.00